sensor_id;sensor_type;location;lat;lon;timestamp;pressure;altitude;pressure_sealevel;temperature;humidity
51687;BME280;37774;52.192;4.584;2023-03-14T00:02:25;98983.13;;;9.54;100.00
51687;BME280;37774;52.192;4.584;2023-03-14T00:04:54;98869.50;;;8.88;100.00
51687;BME280;37774;52.192;4.584;2023-03-14T00:07:20;98855.44;;;8.68;100.00
51687;BME280;37774;52.192;4.584;2023-03-14T00:09:49;98914.97;;;9.25;100.00
51687;BME280;37774;52.192;4.584;2023-03-14T00:12:16;98931.19;;;9.30;100.00
51687;BME280;37774;52.192;4.584;2023-03-14T00:14:43;98909.97;;;9.19;100.00
51687;BME280;37774;52.192;4.584;2023-03-14T00:17:11;98957.41;;;9.48;100.00
51687;BME280;37774;52.192;4.584;2023-03-14T00:19:39;98962.63;;;9.46;100.00
51687;BME280;37774;52.192;4.584;2023-03-14T00:22:06;98781.44;;;8.32;100.00
51687;BME280;37774;52.192;4.584;2023-03-14T00:24:32;98948.78;;;9.20;100.00
51687;BME280;37774;52.192;4.584;2023-03-14T00:26:59;98771.34;;;8.25;100.00
51687;BME280;37774;52.192;4.584;2023-03-14T00:29:26;98907.22;;;8.97;100.00
51687;BME280;37774;52.192;4.584;2023-03-14T00:31:53;98975.81;;;9.40;100.00
51687;BME280;37774;52.192;4.584;2023-03-14T00:34:21;98917.63;;;8.95;100.00
51687;BME280;37774;52.192;4.584;2023-03-14T00:36:48;98897.16;;;8.87;100.00
51687;BME280;37774;52.192;4.584;2023-03-14T00:39:14;98858.13;;;8.65;100.00
51687;BME280;37774;52.192;4.584;2023-03-14T00:41:41;98966.59;;;9.31;100.00
51687;BME280;37774;52.192;4.584;2023-03-14T00:44:08;98965.69;;;9.32;100.00
51687;BME280;37774;52.192;4.584;2023-03-14T00:46:35;98880.44;;;8.69;100.00
51687;BME280;37774;52.192;4.584;2023-03-14T00:49:02;98976.41;;;9.21;100.00
51687;BME280;37774;52.192;4.584;2023-03-14T00:51:30;98981.69;;;9.18;100.00
51687;BME280;37774;52.192;4.584;2023-03-14T00:53:57;98963.59;;;9.17;100.00
51687;BME280;37774;52.192;4.584;2023-03-14T00:56:23;98946.22;;;8.92;100.00
51687;BME280;37774;52.192;4.584;2023-03-14T00:58:53;98951.25;;;8.97;100.00
51687;BME280;37774;52.192;4.584;2023-03-14T01:01:21;98953.44;;;9.11;100.00
51687;BME280;37774;52.192;4.584;2023-03-14T01:03:50;98890.91;;;8.66;100.00
51687;BME280;37774;52.192;4.584;2023-03-14T01:06:19;98961.34;;;9.06;100.00
51687;BME280;37774;52.192;4.584;2023-03-14T01:08:47;98964.03;;;9.03;100.00
51687;BME280;37774;52.192;4.584;2023-03-14T01:11:17;98971.03;;;8.99;100.00
51687;BME280;37774;52.192;4.584;2023-03-14T01:13:44;98963.25;;;8.99;100.00
51687;BME280;37774;52.192;4.584;2023-03-14T01:16:12;98965.84;;;8.99;100.00
51687;BME280;37774;52.192;4.584;2023-03-14T01:18:40;98949.59;;;8.94;100.00
51687;BME280;37774;52.192;4.584;2023-03-14T01:21:14;98905.59;;;8.66;100.00
51687;BME280;37774;52.192;4.584;2023-03-14T01:23:41;98913.97;;;8.74;100.00
51687;BME280;37774;52.192;4.584;2023-03-14T01:26:10;98935.91;;;8.90;100.00
51687;BME280;37774;52.192;4.584;2023-03-14T01:28:37;98936.72;;;8.93;100.00
51687;BME280;37774;52.192;4.584;2023-03-14T01:31:05;98935.16;;;8.87;100.00
51687;BME280;37774;52.192;4.584;2023-03-14T01:33:33;98929.41;;;8.77;100.00
51687;BME280;37774;52.192;4.584;2023-03-14T01:36:00;98952.38;;;8.88;100.00
51687;BME280;37774;52.192;4.584;2023-03-14T01:38:27;98923.66;;;8.67;100.00
51687;BME280;37774;52.192;4.584;2023-03-14T01:40:54;98948.72;;;8.95;100.00
51687;BME280;37774;52.192;4.584;2023-03-14T01:43:22;98879.22;;;8.53;100.00
51687;BME280;37774;52.192;4.584;2023-03-14T01:46:16;98958.00;;;9.02;100.00
51687;BME280;37774;52.192;4.584;2023-03-14T01:48:48;98957.13;;;9.03;100.00
51687;BME280;37774;52.192;4.584;2023-03-14T01:51:20;98939.63;;;9.10;100.00
51687;BME280;37774;52.192;4.584;2023-03-14T01:53:49;98938.59;;;9.16;100.00
51687;BME280;37774;52.192;4.584;2023-03-14T01:56:18;98925.56;;;9.17;100.00
51687;BME280;37774;52.192;4.584;2023-03-14T01:58:48;98941.88;;;9.21;100.00
51687;BME280;37774;52.192;4.584;2023-03-14T02:01:20;98890.81;;;8.96;100.00
51687;BME280;37774;52.192;4.584;2023-03-14T02:03:51;98877.69;;;9.02;100.00
51687;BME280;37774;52.192;4.584;2023-03-14T02:06:22;98909.22;;;9.15;100.00
51687;BME280;37774;52.192;4.584;2023-03-14T02:08:51;98914.00;;;9.28;100.00
51687;BME280;37774;52.192;4.584;2023-03-14T02:11:18;98704.69;;;8.04;100.00
51687;BME280;37774;52.192;4.584;2023-03-14T02:13:47;98881.13;;;9.03;100.00
51687;BME280;37774;52.192;4.584;2023-03-14T02:16:14;98787.97;;;8.44;100.00
51687;BME280;37774;52.192;4.584;2023-03-14T02:18:41;98853.94;;;8.88;100.00
51687;BME280;37774;52.192;4.584;2023-03-14T02:21:13;98904.00;;;9.17;100.00
51687;BME280;37774;52.192;4.584;2023-03-14T02:23:53;98900.66;;;9.13;100.00
51687;BME280;37774;52.192;4.584;2023-03-14T02:26:26;98871.06;;;8.94;100.00
51687;BME280;37774;52.192;4.584;2023-03-14T02:28:56;98894.63;;;9.13;100.00
51687;BME280;37774;52.192;4.584;2023-03-14T02:31:23;98895.75;;;9.04;100.00
51687;BME280;37774;52.192;4.584;2023-03-14T02:33:51;98893.84;;;9.11;100.00
51687;BME280;37774;52.192;4.584;2023-03-14T02:36:18;98895.47;;;9.13;100.00
51687;BME280;37774;52.192;4.584;2023-03-14T02:38:50;98898.94;;;9.12;100.00
51687;BME280;37774;52.192;4.584;2023-03-14T02:41:19;98882.16;;;8.97;100.00
51687;BME280;37774;52.192;4.584;2023-03-14T02:43:46;98886.06;;;9.11;100.00
51687;BME280;37774;52.192;4.584;2023-03-14T02:46:16;98878.31;;;9.09;100.00
51687;BME280;37774;52.192;4.584;2023-03-14T02:48:47;98597.22;;;7.10;100.00
51687;BME280;37774;52.192;4.584;2023-03-14T02:51:16;98895.63;;;9.09;100.00
51687;BME280;37774;52.192;4.584;2023-03-14T02:53:43;98877.75;;;8.99;100.00
51687;BME280;37774;52.192;4.584;2023-03-14T02:56:10;98889.59;;;9.08;100.00
51687;BME280;37774;52.192;4.584;2023-03-14T02:58:38;98716.13;;;7.97;100.00
51687;BME280;37774;52.192;4.584;2023-03-14T03:01:05;98887.06;;;9.06;100.00
51687;BME280;37774;52.192;4.584;2023-03-14T03:03:34;98855.75;;;8.86;100.00
51687;BME280;37774;52.192;4.584;2023-03-14T03:06:00;98888.84;;;9.04;100.00
51687;BME280;37774;52.192;4.584;2023-03-14T03:08:28;98884.56;;;9.03;100.00
51687;BME280;37774;52.192;4.584;2023-03-14T03:10:56;98872.84;;;8.91;100.00
51687;BME280;37774;52.192;4.584;2023-03-14T03:13:23;98752.03;;;8.08;100.00
51687;BME280;37774;52.192;4.584;2023-03-14T03:15:50;98886.50;;;8.97;100.00
51687;BME280;37774;52.192;4.584;2023-03-14T03:18:17;98888.13;;;8.99;100.00
51687;BME280;37774;52.192;4.584;2023-03-14T03:20:45;98819.44;;;8.60;100.00
51687;BME280;37774;52.192;4.584;2023-03-14T03:23:12;98876.16;;;8.95;100.00
51687;BME280;37774;52.192;4.584;2023-03-14T03:25:39;98869.50;;;8.88;100.00
51687;BME280;37774;52.192;4.584;2023-03-14T03:28:05;98861.59;;;8.93;100.00
51687;BME280;37774;52.192;4.584;2023-03-14T03:30:36;98871.78;;;8.97;100.00
51687;BME280;37774;52.192;4.584;2023-03-14T03:33:04;98860.63;;;8.95;100.00
51687;BME280;37774;52.192;4.584;2023-03-14T03:35:30;98866.66;;;8.96;100.00
51687;BME280;37774;52.192;4.584;2023-03-14T03:37:58;98860.53;;;8.98;100.00
51687;BME280;37774;52.192;4.584;2023-03-14T03:40:25;98785.13;;;8.54;100.00
51687;BME280;37774;52.192;4.584;2023-03-14T03:42:52;98826.06;;;8.69;100.00
51687;BME280;37774;52.192;4.584;2023-03-14T03:45:19;98867.31;;;9.02;100.00
51687;BME280;37774;52.192;4.584;2023-03-14T03:47:46;98857.09;;;8.98;100.00
51687;BME280;37774;52.192;4.584;2023-03-14T03:50:13;98863.09;;;9.00;100.00
51687;BME280;37774;52.192;4.584;2023-03-14T03:52:40;98854.38;;;9.02;100.00
51687;BME280;37774;52.192;4.584;2023-03-14T03:55:08;98856.22;;;8.99;100.00
51687;BME280;37774;52.192;4.584;2023-03-14T03:57:35;98829.25;;;8.77;100.00
51687;BME280;37774;52.192;4.584;2023-03-14T04:00:03;98754.22;;;8.21;100.00
51687;BME280;37774;52.192;4.584;2023-03-14T04:02:30;98817.84;;;8.56;100.00
51687;BME280;37774;52.192;4.584;2023-03-14T04:04:57;98860.72;;;8.92;100.00
51687;BME280;37774;52.192;4.584;2023-03-14T04:07:24;98857.34;;;8.90;100.00
51687;BME280;37774;52.192;4.584;2023-03-14T04:09:51;98777.31;;;8.27;100.00
51687;BME280;37774;52.192;4.584;2023-03-14T04:12:19;98842.75;;;8.60;100.00
51687;BME280;37774;52.192;4.584;2023-03-14T04:14:46;98824.22;;;8.44;100.00
51687;BME280;37774;52.192;4.584;2023-03-14T04:17:13;98867.59;;;8.66;100.00
51687;BME280;37774;52.192;4.584;2023-03-14T04:19:40;98871.06;;;8.65;100.00
51687;BME280;37774;52.192;4.584;2023-03-14T04:22:07;98767.91;;;7.66;100.00
51687;BME280;37774;52.192;4.584;2023-03-14T04:24:34;98827.59;;;8.18;100.00
51687;BME280;37774;52.192;4.584;2023-03-14T04:27:01;98825.16;;;8.13;100.00
51687;BME280;37774;52.192;4.584;2023-03-14T04:29:29;98867.56;;;8.38;100.00
51687;BME280;37774;52.192;4.584;2023-03-14T04:31:55;98885.38;;;8.47;100.00
51687;BME280;37774;52.192;4.584;2023-03-14T04:34:22;98873.31;;;8.47;100.00
51687;BME280;37774;52.192;4.584;2023-03-14T04:36:49;98842.00;;;8.27;100.00
51687;BME280;37774;52.192;4.584;2023-03-14T04:39:16;98831.13;;;8.15;100.00
51687;BME280;37774;52.192;4.584;2023-03-14T04:41:44;98786.25;;;7.86;100.00
51687;BME280;37774;52.192;4.584;2023-03-14T04:44:10;98846.88;;;8.08;100.00
51687;BME280;37774;52.192;4.584;2023-03-14T04:46:38;98880.69;;;8.31;100.00
51687;BME280;37774;52.192;4.584;2023-03-14T04:49:05;98872.03;;;8.32;100.00
51687;BME280;37774;52.192;4.584;2023-03-14T04:51:32;98839.09;;;8.09;100.00
51687;BME280;37774;52.192;4.584;2023-03-14T04:53:59;98873.78;;;8.32;100.00
51687;BME280;37774;52.192;4.584;2023-03-14T04:56:25;98846.06;;;8.06;100.00
51687;BME280;37774;52.192;4.584;2023-03-14T04:58:53;98881.63;;;8.29;100.00
51687;BME280;37774;52.192;4.584;2023-03-14T05:01:19;98875.66;;;8.27;100.00
51687;BME280;37774;52.192;4.584;2023-03-14T05:03:47;98799.38;;;7.80;100.00
51687;BME280;37774;52.192;4.584;2023-03-14T05:06:14;98879.16;;;8.24;100.00
51687;BME280;37774;52.192;4.584;2023-03-14T05:08:41;98864.88;;;8.12;100.00
51687;BME280;37774;52.192;4.584;2023-03-14T05:11:10;98872.28;;;8.23;100.00
51687;BME280;37774;52.192;4.584;2023-03-14T05:13:36;98891.28;;;8.24;100.00
51687;BME280;37774;52.192;4.584;2023-03-14T05:16:04;98908.59;;;8.22;100.00
51687;BME280;37774;52.192;4.584;2023-03-14T05:18:31;98838.16;;;7.80;100.00
51687;BME280;37774;52.192;4.584;2023-03-14T05:20:59;98881.72;;;7.96;100.00
51687;BME280;37774;52.192;4.584;2023-03-14T05:23:26;98911.53;;;8.09;100.00
51687;BME280;37774;52.192;4.584;2023-03-14T05:25:53;98924.84;;;8.25;100.00
51687;BME280;37774;52.192;4.584;2023-03-14T05:28:20;98936.50;;;8.10;100.00
51687;BME280;37774;52.192;4.584;2023-03-14T05:30:47;98963.16;;;7.79;100.00
51687;BME280;37774;52.192;4.584;2023-03-14T05:33:13;98843.38;;;6.78;100.00
51687;BME280;37774;52.192;4.584;2023-03-14T05:35:41;98870.22;;;6.70;100.00
51687;BME280;37774;52.192;4.584;2023-03-14T05:38:09;98935.88;;;6.98;100.00
51687;BME280;37774;52.192;4.584;2023-03-14T05:40:36;98966.66;;;7.07;100.00
51687;BME280;37774;52.192;4.584;2023-03-14T05:43:03;98978.06;;;6.98;100.00
51687;BME280;37774;52.192;4.584;2023-03-14T05:45:29;98986.78;;;6.93;100.00
51687;BME280;37774;52.192;4.584;2023-03-14T05:47:56;98973.28;;;6.80;100.00
51687;BME280;37774;52.192;4.584;2023-03-14T05:50:23;99004.91;;;6.91;100.00
51687;BME280;37774;52.192;4.584;2023-03-14T05:52:49;99018.78;;;6.85;100.00
51687;BME280;37774;52.192;4.584;2023-03-14T05:55:18;99012.94;;;6.77;100.00
51687;BME280;37774;52.192;4.584;2023-03-14T05:57:44;99000.56;;;6.51;100.00
51687;BME280;37774;52.192;4.584;2023-03-14T06:00:12;99013.38;;;6.55;100.00
51687;BME280;37774;52.192;4.584;2023-03-14T06:02:39;99002.50;;;6.39;100.00
51687;BME280;37774;52.192;4.584;2023-03-14T06:05:07;99059.59;;;6.68;100.00
51687;BME280;37774;52.192;4.584;2023-03-14T06:07:34;99071.81;;;6.58;100.00
51687;BME280;37774;52.192;4.584;2023-03-14T06:10:01;98954.69;;;5.74;100.00
51687;BME280;37774;52.192;4.584;2023-03-14T06:12:29;99056.00;;;6.31;100.00
51687;BME280;37774;52.192;4.584;2023-03-14T06:14:56;99020.34;;;6.05;100.00
51687;BME280;37774;52.192;4.584;2023-03-14T06:17:22;99070.66;;;6.29;100.00
51687;BME280;37774;52.192;4.584;2023-03-14T06:19:49;99081.84;;;6.28;100.00
51687;BME280;37774;52.192;4.584;2023-03-14T06:22:16;99116.97;;;6.35;100.00
51687;BME280;37774;52.192;4.584;2023-03-14T06:24:44;99128.19;;;6.34;100.00
51687;BME280;37774;52.192;4.584;2023-03-14T06:27:11;99102.72;;;6.14;100.00
51687;BME280;37774;52.192;4.584;2023-03-14T06:29:39;99148.88;;;6.31;100.00
51687;BME280;37774;52.192;4.584;2023-03-14T06:32:06;99178.91;;;6.34;100.00
51687;BME280;37774;52.192;4.584;2023-03-14T06:34:33;99188.34;;;6.36;100.00
51687;BME280;37774;52.192;4.584;2023-03-14T06:36:59;99205.63;;;6.29;100.00
51687;BME280;37774;52.192;4.584;2023-03-14T06:39:26;99216.81;;;6.30;100.00
51687;BME280;37774;52.192;4.584;2023-03-14T06:41:53;99226.31;;;6.28;100.00
51687;BME280;37774;52.192;4.584;2023-03-14T06:44:19;99234.09;;;6.25;100.00
51687;BME280;37774;52.192;4.584;2023-03-14T06:46:47;99234.97;;;6.24;100.00
51687;BME280;37774;52.192;4.584;2023-03-14T06:49:14;99213.75;;;6.06;100.00
51687;BME280;37774;52.192;4.584;2023-03-14T06:51:41;99218.97;;;6.03;100.00
51687;BME280;37774;52.192;4.584;2023-03-14T06:54:08;99137.22;;;5.47;100.00
51687;BME280;37774;52.192;4.584;2023-03-14T06:56:35;99273.78;;;6.18;100.00
51687;BME280;37774;52.192;4.584;2023-03-14T06:59:02;99287.59;;;6.13;100.00
51687;BME280;37774;52.192;4.584;2023-03-14T07:01:30;99157.25;;;5.25;100.00
51687;BME280;37774;52.192;4.584;2023-03-14T07:03:59;99011.88;;;4.13;100.00
51687;BME280;37774;52.192;4.584;2023-03-14T07:06:25;99335.00;;;6.02;100.00
51687;BME280;37774;52.192;4.584;2023-03-14T07:08:54;99323.09;;;5.91;100.00
51687;BME280;37774;52.192;4.584;2023-03-14T07:11:21;99161.94;;;4.93;100.00
51687;BME280;37774;52.192;4.584;2023-03-14T07:13:48;99260.91;;;5.47;100.00
51687;BME280;37774;52.192;4.584;2023-03-14T07:16:14;99375.28;;;6.12;100.00
51687;BME280;37774;52.192;4.584;2023-03-14T07:18:42;99379.69;;;6.04;100.00
51687;BME280;37774;52.192;4.584;2023-03-14T07:21:10;99388.53;;;5.81;100.00
51687;BME280;37774;52.192;4.584;2023-03-14T07:23:37;99404.19;;;5.61;100.00
51687;BME280;37774;52.192;4.584;2023-03-14T07:26:04;99405.34;;;5.32;100.00
51687;BME280;37774;52.192;4.584;2023-03-14T07:28:31;99337.03;;;4.90;100.00
51687;BME280;37774;52.192;4.584;2023-03-14T07:30:58;99379.97;;;4.85;100.00
51687;BME280;37774;52.192;4.584;2023-03-14T07:33:25;99417.75;;;4.83;100.00
51687;BME280;37774;52.192;4.584;2023-03-14T07:35:52;99475.06;;;5.05;100.00
51687;BME280;37774;52.192;4.584;2023-03-14T07:38:20;99358.03;;;4.23;100.00
51687;BME280;37774;52.192;4.584;2023-03-14T07:40:47;99484.72;;;4.69;100.00
51687;BME280;37774;52.192;4.584;2023-03-14T07:43:14;99504.44;;;4.68;100.00
51687;BME280;37774;52.192;4.584;2023-03-14T07:45:41;99483.09;;;4.52;100.00
51687;BME280;37774;52.192;4.584;2023-03-14T07:48:11;99391.63;;;3.83;100.00
51687;BME280;37774;52.192;4.584;2023-03-14T07:50:38;99560.19;;;4.82;100.00
51687;BME280;37774;52.192;4.584;2023-03-14T07:53:05;99577.31;;;4.81;100.00
51687;BME280;37774;52.192;4.584;2023-03-14T07:55:33;99276.31;;;2.79;100.00
51687;BME280;37774;52.192;4.584;2023-03-14T07:58:00;99493.56;;;4.04;100.00
51687;BME280;37774;52.192;4.584;2023-03-14T08:00:27;99556.09;;;4.19;100.00
51687;BME280;37774;52.192;4.584;2023-03-14T08:02:54;99540.69;;;3.99;100.00
51687;BME280;37774;52.192;4.584;2023-03-14T08:05:21;99649.47;;;4.63;100.00
51687;BME280;37774;52.192;4.584;2023-03-14T08:07:48;99660.59;;;4.65;100.00
51687;BME280;37774;52.192;4.584;2023-03-14T08:10:15;99682.91;;;4.69;100.00
51687;BME280;37774;52.192;4.584;2023-03-14T08:12:48;99653.78;;;4.39;100.00
51687;BME280;37774;52.192;4.584;2023-03-14T08:15:15;99664.06;;;4.41;100.00
51687;BME280;37774;52.192;4.584;2023-03-14T08:17:42;99670.09;;;4.26;100.00
51687;BME280;37774;52.192;4.584;2023-03-14T08:20:10;99735.22;;;4.21;100.00
51687;BME280;37774;52.192;4.584;2023-03-14T08:22:38;99810.69;;;4.50;100.00
51687;BME280;37774;52.192;4.584;2023-03-14T08:25:06;99830.44;;;4.40;100.00
51687;BME280;37774;52.192;4.584;2023-03-14T08:27:33;99814.94;;;4.21;100.00
51687;BME280;37774;52.192;4.584;2023-03-14T08:30:01;99905.06;;;4.66;100.00
51687;BME280;37774;52.192;4.584;2023-03-14T08:32:29;99816.63;;;4.13;100.00
51687;BME280;37774;52.192;4.584;2023-03-14T08:34:56;99922.25;;;4.74;100.00
51687;BME280;37774;52.192;4.584;2023-03-14T08:37:23;99929.97;;;4.74;100.00
51687;BME280;37774;52.192;4.584;2023-03-14T08:39:50;99958.31;;;4.83;100.00
51687;BME280;37774;52.192;4.584;2023-03-14T08:42:17;99844.13;;;4.34;100.00
51687;BME280;37774;52.192;4.584;2023-03-14T08:44:44;99946.34;;;5.01;100.00
51687;BME280;37774;52.192;4.584;2023-03-14T08:47:12;99880.22;;;4.64;100.00
51687;BME280;37774;52.192;4.584;2023-03-14T08:49:39;99674.28;;;3.50;100.00
51687;BME280;37774;52.192;4.584;2023-03-14T08:52:06;99954.03;;;5.27;100.00
51687;BME280;37774;52.192;4.584;2023-03-14T08:54:33;99902.53;;;5.02;100.00
51687;BME280;37774;52.192;4.584;2023-03-14T08:57:00;99937.75;;;5.17;100.00
51687;BME280;37774;52.192;4.584;2023-03-14T08:59:26;99944.63;;;5.28;100.00
51687;BME280;37774;52.192;4.584;2023-03-14T09:01:53;99952.34;;;5.40;100.00
51687;BME280;37774;52.192;4.584;2023-03-14T09:04:22;99939.47;;;5.35;100.00
51687;BME280;37774;52.192;4.584;2023-03-14T09:06:48;99945.47;;;5.36;100.00
51687;BME280;37774;52.192;4.584;2023-03-14T09:09:15;99937.75;;;5.39;100.00
51687;BME280;37774;52.192;4.584;2023-03-14T09:11:42;99809.84;;;4.57;100.00
51687;BME280;37774;52.192;4.584;2023-03-14T09:14:09;99911.13;;;5.17;100.00
51687;BME280;37774;52.192;4.584;2023-03-14T09:16:36;99922.28;;;4.92;100.00
51687;BME280;37774;52.192;4.584;2023-03-14T09:19:02;99959.19;;;4.97;100.00
51687;BME280;37774;52.192;4.584;2023-03-14T09:21:31;99953.97;;;4.73;100.00
51687;BME280;37774;52.192;4.584;2023-03-14T09:23:57;99985.78;;;4.78;100.00
51687;BME280;37774;52.192;4.584;2023-03-14T09:26:24;99999.47;;;4.74;100.00
51687;BME280;37774;52.192;4.584;2023-03-14T09:28:51;100006.31;;;4.68;100.00
51687;BME280;37774;52.192;4.584;2023-03-14T09:31:18;100005.44;;;4.70;100.00
51687;BME280;37774;52.192;4.584;2023-03-14T09:33:55;100020.91;;;4.65;100.00
51687;BME280;37774;52.192;4.584;2023-03-14T09:36:21;100000.25;;;4.51;100.00
51687;BME280;37774;52.192;4.584;2023-03-14T09:38:50;99975.38;;;4.53;100.00
51687;BME280;37774;52.192;4.584;2023-03-14T09:41:20;100020.13;;;4.95;100.00
51687;BME280;37774;52.192;4.584;2023-03-14T09:43:50;99978.91;;;4.85;100.00
51687;BME280;37774;52.192;4.584;2023-03-14T09:46:20;100027.88;;;5.19;100.00
51687;BME280;37774;52.192;4.584;2023-03-14T09:48:48;99960.91;;;4.99;100.00
51687;BME280;37774;52.192;4.584;2023-03-14T09:51:17;100012.44;;;5.28;100.00
51687;BME280;37774;52.192;4.584;2023-03-14T09:53:46;100025.34;;;5.42;100.00
51687;BME280;37774;52.192;4.584;2023-03-14T09:56:17;100013.28;;;5.18;100.00
51687;BME280;37774;52.192;4.584;2023-03-14T09:58:48;100012.47;;;5.68;100.00
51687;BME280;37774;52.192;4.584;2023-03-14T10:01:21;100009.88;;;5.78;100.00
51687;BME280;37774;52.192;4.584;2023-03-14T10:03:50;99907.69;;;4.93;100.00
51687;BME280;37774;52.192;4.584;2023-03-14T10:06:20;99960.06;;;5.24;100.00
51687;BME280;37774;52.192;4.584;2023-03-14T10:08:50;100015.91;;;5.43;100.00
51687;BME280;37774;52.192;4.584;2023-03-14T10:11:19;100032.22;;;5.46;100.00
51687;BME280;37774;52.192;4.584;2023-03-14T10:13:49;100010.72;;;5.66;100.00
51687;BME280;37774;52.192;4.584;2023-03-14T10:16:28;99948.06;;;5.26;100.00
51687;BME280;37774;52.192;4.584;2023-03-14T10:19:01;99979.81;;;5.55;100.00
51687;BME280;37774;52.192;4.584;2023-03-14T10:21:30;99790.13;;;4.50;100.00
51687;BME280;37774;52.192;4.584;2023-03-14T10:24:08;100041.66;;;5.83;100.00
51687;BME280;37774;52.192;4.584;2023-03-14T10:26:36;100049.41;;;5.94;100.00
51687;BME280;37774;52.192;4.584;2023-03-14T10:29:09;100039.97;;;5.93;100.00
51687;BME280;37774;52.192;4.584;2023-03-14T10:31:47;100022.78;;;5.68;100.00
51687;BME280;37774;52.192;4.584;2023-03-14T10:34:16;99954.06;;;5.01;100.00
51687;BME280;37774;52.192;4.584;2023-03-14T10:36:43;100070.88;;;5.41;100.00
51687;BME280;37774;52.192;4.584;2023-03-14T10:39:24;100064.84;;;5.38;100.00
51687;BME280;37774;52.192;4.584;2023-03-14T10:41:56;100088.91;;;5.59;100.00
51687;BME280;37774;52.192;4.584;2023-03-14T10:44:28;99802.94;;;4.16;100.00
51687;BME280;37774;52.192;4.584;2023-03-14T10:46:59;100098.41;;;5.84;100.00
51687;BME280;37774;52.192;4.584;2023-03-14T10:49:29;100107.00;;;5.88;100.00
51687;BME280;37774;52.192;4.584;2023-03-14T10:52:01;100125.06;;;5.83;100.00
51687;BME280;37774;52.192;4.584;2023-03-14T10:54:30;100143.13;;;5.90;100.00
51687;BME280;37774;52.192;4.584;2023-03-14T10:56:59;100129.34;;;5.92;100.00
51687;BME280;37774;52.192;4.584;2023-03-14T10:59:27;100044.22;;;5.29;100.00
51687;BME280;37774;52.192;4.584;2023-03-14T11:01:59;100101.81;;;5.60;100.00
51687;BME280;37774;52.192;4.584;2023-03-14T11:04:52;100162.00;;;5.93;100.00
51687;BME280;37774;52.192;4.584;2023-03-14T11:07:28;100088.06;;;5.43;100.00
51687;BME280;37774;52.192;4.584;2023-03-14T11:10:17;100168.91;;;5.90;100.00
51687;BME280;37774;52.192;4.584;2023-03-14T11:12:55;100184.38;;;5.90;100.00
51687;BME280;37774;52.192;4.584;2023-03-14T11:15:32;100189.56;;;6.19;100.00
51687;BME280;37774;52.192;4.584;2023-03-14T11:21:07;100212.78;;;6.04;100.00
51687;BME280;37774;52.192;4.584;2023-03-14T11:23:41;100228.28;;;6.24;100.00
51687;BME280;37774;52.192;4.584;2023-03-14T11:26:19;100199.91;;;6.11;100.00
51687;BME280;37774;52.192;4.584;2023-03-14T11:28:57;100204.19;;;6.28;100.00
51687;BME280;37774;52.192;4.584;2023-03-14T11:31:26;100132.78;;;5.90;100.00
51687;BME280;37774;52.192;4.584;2023-03-14T11:33:56;100147.34;;;5.63;100.00
51687;BME280;37774;52.192;4.584;2023-03-14T11:36:31;100210.19;;;6.10;100.00
51687;BME280;37774;52.192;4.584;2023-03-14T11:38:59;100266.13;;;6.40;100.00
51687;BME280;37774;52.192;4.584;2023-03-14T11:41:30;100268.72;;;6.39;100.00
51687;BME280;37774;52.192;4.584;2023-03-14T11:44:02;100057.91;;;4.96;100.00
51687;BME280;37774;52.192;4.584;2023-03-14T11:46:33;100223.03;;;5.91;100.00
51687;BME280;37774;52.192;4.584;2023-03-14T11:49:06;100282.44;;;6.13;100.00
51687;BME280;37774;52.192;4.584;2023-03-14T11:51:35;100294.50;;;6.23;100.00
51687;BME280;37774;52.192;4.584;2023-03-14T11:54:11;100271.22;;;6.00;100.00
51687;BME280;37774;52.192;4.584;2023-03-14T11:56:45;100310.81;;;6.19;100.00
51687;BME280;37774;52.192;4.584;2023-03-14T11:59:17;100241.03;;;5.60;100.00
51687;BME280;37774;52.192;4.584;2023-03-14T12:01:53;100284.88;;;5.66;100.00
51687;BME280;37774;52.192;4.584;2023-03-14T12:04:40;100319.34;;;5.99;100.00
51687;BME280;37774;52.192;4.584;2023-03-14T12:07:17;100279.78;;;5.97;100.00
51687;BME280;37774;52.192;4.584;2023-03-14T12:09:47;100312.59;;;6.31;100.00
51687;BME280;37774;52.192;4.584;2023-03-14T12:12:18;100303.09;;;6.28;100.00
51687;BME280;37774;52.192;4.584;2023-03-14T12:14:53;100286.66;;;5.86;100.00
51687;BME280;37774;52.192;4.584;2023-03-14T12:17:22;100335.75;;;6.11;100.00
51687;BME280;37774;52.192;4.584;2023-03-14T12:20:00;100354.75;;;6.46;100.00
51687;BME280;37774;52.192;4.584;2023-03-14T12:22:33;100291.75;;;5.72;100.00
51687;BME280;37774;52.192;4.584;2023-03-14T12:25:12;100370.16;;;6.10;100.00
51687;BME280;37774;52.192;4.584;2023-03-14T12:27:46;100333.94;;;5.83;100.00
51687;BME280;37774;52.192;4.584;2023-03-14T12:30:29;100334.03;;;6.11;100.00
51687;BME280;37774;52.192;4.584;2023-03-14T12:33:31;100303.94;;;6.01;100.00
51687;BME280;37774;52.192;4.584;2023-03-14T12:36:30;100340.94;;;6.23;100.00
51687;BME280;37774;52.192;4.584;2023-03-14T12:39:16;100316.81;;;6.03;100.00
51687;BME280;37774;52.192;4.584;2023-03-14T12:41:51;100140.31;;;5.03;100.00
51687;BME280;37774;52.192;4.584;2023-03-14T12:44:38;100372.78;;;6.30;100.00
51687;BME280;37774;52.192;4.584;2023-03-14T12:50:18;100355.44;;;5.89;100.00
51687;BME280;37774;52.192;4.584;2023-03-14T12:53:05;100420.88;;;6.06;100.00
51687;BME280;37774;52.192;4.584;2023-03-14T12:55:39;100395.13;;;6.16;100.00
51687;BME280;37774;52.192;4.584;2023-03-14T12:58:15;100404.66;;;6.40;100.00
51687;BME280;37774;52.192;4.584;2023-03-14T13:00:44;100296.97;;;5.86;100.00
51687;BME280;37774;52.192;4.584;2023-03-14T13:03:19;100396.03;;;6.33;100.00
51687;BME280;37774;52.192;4.584;2023-03-14T13:05:57;100408.91;;;6.21;100.00
51687;BME280;37774;52.192;4.584;2023-03-14T13:08:34;100441.72;;;6.65;100.00
51687;BME280;37774;52.192;4.584;2023-03-14T13:11:05;100327.78;;;5.60;100.00
51687;BME280;37774;52.192;4.584;2023-03-14T13:13:34;100436.47;;;6.40;100.00
51687;BME280;37774;52.192;4.584;2023-03-14T13:16:02;100384.81;;;6.23;100.00